Time;durP1;ratioP1;P1;durP2;ratioP2;P2;SDS_P1;SDS_P2;PMS_P1;PMS_P2;Temp;Humidity;BMP_temperature;BMP_pressure;BME280_temperature;BME280_humidity;BME280_pressure;Samples;Min_cycle;Max_cycle;Signal;HPM_P1;HPM_P2
2023/03/03 00:01:06;;;;;;;33.17;20.10;;;0.40;99.90;;;;;;5069386;28;20200;-83
2023/03/03 00:03:33;;;;;;;32.88;18.25;;;0.50;99.90;;;;;;5068935;28;20223;-82
2023/03/03 00:06:03;;;;;;;28.38;17.20;;;0.60;99.90;;;;;;5068144;28;20282;-82
2023/03/03 00:08:31;;;;;;;30.80;16.60;;;0.80;99.90;;;;;;5072849;28;20176;-82
2023/03/03 00:10:59;;;;;;;33.20;17.55;;;0.40;99.90;;;;;;5075864;28;20204;-82
2023/03/03 00:13:27;;;;;;;25.70;15.05;;;0.60;99.90;;;;;;5074810;28;20290;-82
2023/03/03 00:16:05;;;;;;;29.27;15.40;;;0.70;99.90;;;;;;5074036;28;20207;-83
2023/03/03 00:18:35;;;;;;;24.88;14.18;;;0.70;99.90;;;;;;5073499;28;20634;-82
2023/03/03 00:21:21;;;;;;;27.40;15.07;;;0.60;99.90;;;;;;5074092;28;20222;-82
2023/03/03 00:23:48;;;;;;;28.35;15.45;;;0.50;89.00;;;;;;5076206;28;20203;-82
2023/03/03 00:26:21;;;;;;;24.00;12.55;;;0.40;97.60;;;;;;5079107;28;20211;-82
2023/03/03 00:28:49;;;;;;;28.02;14.05;;;0.50;99.90;;;;;;5077238;28;20211;-82
2023/03/03 00:31:19;;;;;;;32.08;15.00;;;0.50;99.90;;;;;;5067075;28;20202;-82
2023/03/03 00:33:50;;;;;;;28.95;13.60;;;0.40;91.60;;;;;;5070191;28;20253;-83
2023/03/03 00:36:31;;;;;;;26.20;13.35;;;0.30;99.90;;;;;;5073180;28;20205;-83
2023/03/03 00:39:15;;;;;;;28.98;15.40;;;1.20;99.90;;;;;;5078974;28;20183;-82
2023/03/03 00:41:42;;;;;;;27.15;13.77;;;1.00;99.90;;;;;;5077273;28;20172;-82
2023/03/03 00:44:42;;;;;;;30.00;15.27;;;0.40;99.90;;;;;;5073931;28;20224;-82
2023/03/03 00:47:26;;;;;;;24.20;15.05;;;0.50;99.90;;;;;;5071735;28;20230;-82
2023/03/03 00:49:53;;;;;;;26.95;14.20;;;0.50;92.00;;;;;;5077515;28;20705;-81
2023/03/03 00:52:23;;;;;;;26.45;13.18;;;0.50;68.70;;;;;;5075507;28;20214;-82
2023/03/03 00:54:50;;;;;;;23.65;14.63;;;0.40;18.70;;;;;;5073774;28;20265;-82
2023/03/03 00:57:17;;;;;;;29.35;14.45;;;0.30;58.80;;;;;;5066710;28;20242;-82
2023/03/03 00:59:44;;;;;;;20.92;13.00;;;0.40;96.10;;;;;;5064778;28;20287;-83
2023/03/03 01:02:11;;;;;;;20.55;12.82;;;0.10;99.90;;;;;;5065826;28;20291;-82
2023/03/03 01:04:38;;;;;;;22.13;12.32;;;0.20;60.00;;;;;;5066115;28;20251;-83
2023/03/03 01:07:05;;;;;;;21.02;13.30;;;0.20;99.90;;;;;;5066824;28;20314;-82
2023/03/03 01:09:33;;;;;;;22.23;13.85;;;0.30;98.40;;;;;;5067282;28;20233;-82
2023/03/03 01:12:00;;;;;;;27.45;12.85;;;0.30;97.70;;;;;;5066421;28;20210;-83
2023/03/03 01:14:27;;;;;;;25.45;14.15;;;0.30;99.80;;;;;;5066467;28;20262;-82
2023/03/03 01:16:54;;;;;;;25.42;13.38;;;0.30;99.90;;;;;;5066332;28;20239;-82
2023/03/03 01:19:21;;;;;;;23.88;13.80;;;0.50;99.90;;;;;;5068007;28;20289;-82
2023/03/03 01:21:48;;;;;;;28.10;14.93;;;0.50;99.90;;;;;;5065978;28;20211;-82
2023/03/03 01:24:15;;;;;;;29.23;15.23;;;0.40;99.90;;;;;;5065875;28;20318;-83
2023/03/03 01:26:43;;;;;;;21.48;12.63;;;0.50;99.90;;;;;;5065895;28;20223;-82
2023/03/03 01:29:10;;;;;;;19.75;10.95;;;0.60;99.90;;;;;;5066932;28;20211;-82
2023/03/03 01:31:36;;;;;;;25.05;16.80;;;0.40;99.90;;;;;;5066702;28;20203;-82
2023/03/03 01:34:03;;;;;;;26.65;13.88;;;0.50;99.90;;;;;;5067980;28;20258;-82
2023/03/03 01:36:30;;;;;;;20.83;12.38;;;0.00;99.90;;;;;;5070850;28;20602;-82
2023/03/03 01:38:57;;;;;;;21.45;13.02;;;0.30;99.90;;;;;;5071826;28;20246;-81
2023/03/03 01:41:27;;;;;;;24.38;13.68;;;0.60;99.90;;;;;;5071294;28;20245;-83
2023/03/03 01:43:56;;;;;;;24.58;14.88;;;0.40;99.90;;;;;;5069421;28;20219;-83
2023/03/03 01:46:49;;;;;;;24.40;13.77;;;0.80;62.60;;;;;;5069483;28;20215;-83
2023/03/03 01:49:19;;;;;;;26.55;14.00;;;0.20;99.90;;;;;;5062681;28;20213;-83
2023/03/03 01:51:50;;;;;;;32.38;16.23;;;0.40;99.90;;;;;;5079555;28;20258;-83
2023/03/03 01:54:24;;;;;;;28.15;16.90;;;0.40;99.90;;;;;;5079235;28;20230;-83
2023/03/03 01:56:53;;;;;;;31.38;16.95;;;0.20;99.90;;;;;;5070791;28;20211;-83
2023/03/03 01:59:25;;;;;;;31.95;19.90;;;0.20;99.90;;;;;;5071546;28;20247;-82
2023/03/03 02:01:52;;;;;;;35.70;18.88;;;0.30;99.90;;;;;;5071085;28;20192;-82
2023/03/03 02:04:20;;;;;;;34.55;19.20;;;0.50;99.90;;;;;;5069044;28;20255;-82
2023/03/03 02:06:52;;;;;;;30.58;17.90;;;0.40;99.90;;;;;;5068818;28;20226;-82
2023/03/03 02:09:26;;;;;;;32.05;20.05;;;0.60;99.90;;;;;;5078521;28;20204;-82
2023/03/03 02:11:57;;;;;;;35.25;20.73;;;0.60;99.90;;;;;;5081284;28;20190;-82
2023/03/03 02:14:25;;;;;;;31.98;17.45;;;0.60;98.50;;;;;;5086092;22;20663;-82
2023/03/03 02:16:52;;;;;;;32.05;17.38;;;0.60;92.20;;;;;;5065784;28;20225;-82
2023/03/03 02:19:28;;;;;;;44.85;22.42;;;0.80;99.90;;;;;;5062184;28;20243;-81
2023/03/03 02:21:55;;;;;;;33.58;20.25;;;0.70;65.30;;;;;;5060717;28;20241;-83
2023/03/03 02:24:28;;;;;;;29.73;17.38;;;0.60;29.30;;;;;;5060903;28;20220;-82
2023/03/03 02:27:06;;;;;;;32.38;18.67;;;0.40;38.60;;;;;;5060266;28;20689;-81
2023/03/03 02:29:33;;;;;;;30.73;17.95;;;0.40;99.90;;;;;;5060780;28;20275;-83
2023/03/03 02:32:00;;;;;;;32.88;17.98;;;0.40;99.90;;;;;;5060326;28;20208;-82
2023/03/03 02:34:26;;;;;;;34.88;18.88;;;0.50;99.90;;;;;;5059921;28;20310;-83
2023/03/03 02:36:53;;;;;;;29.70;17.95;;;0.50;99.90;;;;;;5059251;28;20282;-82
2023/03/03 02:39:22;;;;;;;32.25;19.85;;;0.40;99.90;;;;;;5059343;28;20203;-82
2023/03/03 02:41:53;;;;;;;33.03;17.67;;;0.60;99.90;;;;;;5059968;28;20282;-82
2023/03/03 02:44:23;;;;;;;35.08;19.00;;;0.50;99.90;;;;;;5058735;28;20232;-82
2023/03/03 02:46:52;;;;;;;32.00;18.58;;;0.70;99.90;;;;;;5058961;28;20627;-82
2023/03/03 02:49:20;;;;;;;37.22;17.98;;;0.50;99.90;;;;;;5060212;28;20685;-81
2023/03/03 02:51:48;;;;;;;31.13;19.45;;;0.50;99.90;;;;;;5059867;28;20299;-82
2023/03/03 02:54:17;;;;;;;36.25;19.38;;;0.50;99.90;;;;;;5059045;28;20228;-82
2023/03/03 02:56:45;;;;;;;36.65;19.55;;;0.60;99.90;;;;;;5060736;28;20231;-83
2023/03/03 02:59:12;;;;;;;31.98;17.65;;;0.70;99.90;;;;;;5062103;28;20271;-80
2023/03/03 03:01:40;;;;;;;38.42;19.23;;;0.50;44.70;;;;;;5063392;28;20272;-82
2023/03/03 03:04:10;;;;;;;32.28;17.27;;;0.30;96.30;;;;;;5063924;28;20597;-82
2023/03/03 03:06:37;;;;;;;33.92;18.65;;;0.40;99.90;;;;;;5063747;28;20302;-82
2023/03/03 03:09:05;;;;;;;37.33;20.30;;;0.60;99.90;;;;;;5060173;28;20208;-81
2023/03/03 03:11:32;;;;;;;35.95;21.60;;;0.40;99.90;;;;;;5059382;28;20212;-82
2023/03/03 03:13:58;;;;;;;34.00;19.45;;;0.20;99.90;;;;;;5058579;28;20265;-82
2023/03/03 03:16:26;;;;;;;37.90;21.52;;;0.10;99.90;;;;;;5060047;28;20669;-84
2023/03/03 03:18:54;;;;;;;37.75;18.80;;;0.10;99.90;;;;;;5059750;28;20267;-81
2023/03/03 03:21:21;;;;;;;33.45;17.98;;;0.20;99.90;;;;;;5065980;28;20290;-80
2023/03/03 03:23:47;;;;;;;31.77;18.05;;;0.30;99.90;;;;;;5059893;28;20793;-83
2023/03/03 03:26:14;;;;;;;29.80;18.10;;;0.30;99.90;;;;;;5058384;28;20223;-82
2023/03/03 03:28:41;;;;;;;32.97;16.70;;;0.20;99.90;;;;;;5058564;28;20203;-83
2023/03/03 03:31:09;;;;;;;26.08;16.38;;;0.20;99.90;;;;;;5057679;28;20234;-83
2023/03/03 03:33:36;;;;;;;31.83;18.45;;;0.20;99.90;;;;;;5057429;28;20224;-83
2023/03/03 03:36:06;;;;;;;32.33;19.20;;;0.30;99.90;;;;;;5057505;28;20297;-83
2023/03/03 03:38:35;;;;;;;32.50;18.70;;;0.40;99.90;;;;;;5057930;28;20554;-82
2023/03/03 03:41:02;;;;;;;32.13;18.20;;;0.40;99.90;;;;;;5057924;28;20627;-82
2023/03/03 03:43:29;;;;;;;33.65;18.55;;;-0.90;99.90;;;;;;5057789;28;20670;-82
2023/03/03 03:45:56;;;;;;;34.17;16.42;;;0.00;99.90;;;;;;5072520;28;20233;-80
2023/03/03 03:48:23;;;;;;;35.50;17.60;;;0.00;99.90;;;;;;5071334;28;20571;-82
2023/03/03 03:50:51;;;;;;;35.65;18.23;;;0.10;99.90;;;;;;5059907;28;20210;-83
2023/03/03 03:53:19;;;;;;;37.88;18.50;;;0.30;99.90;;;;;;5060173;28;20203;-81
2023/03/03 03:55:46;;;;;;;34.90;18.20;;;0.10;99.90;;;;;;5064259;28;20209;-81
2023/03/03 03:58:13;;;;;;;33.95;16.85;;;0.10;99.90;;;;;;5062723;28;20196;-82
2023/03/03 04:00:41;;;;;;;32.70;17.90;;;0.10;99.90;;;;;;5061208;28;20205;-81
2023/03/03 04:03:08;;;;;;;33.20;15.82;;;0.00;99.90;;;;;;5061436;28;20204;-80
2023/03/03 04:05:35;;;;;;;36.55;19.10;;;0.00;99.90;;;;;;5064324;28;20232;-83
2023/03/03 04:08:02;;;;;;;31.65;17.95;;;0.00;99.90;;;;;;5066272;28;20263;-81
2023/03/03 04:10:30;;;;;;;37.80;18.02;;;0.20;99.90;;;;;;5059819;28;20294;-84
2023/03/03 04:12:57;;;;;;;32.25;18.10;;;0.30;99.90;;;;;;5061841;28;20696;-81
2023/03/03 04:15:24;;;;;;;36.63;19.08;;;0.10;99.90;;;;;;5062757;28;20233;-81
2023/03/03 04:17:51;;;;;;;34.95;17.05;;;0.00;99.90;;;;;;5063247;28;20266;-81
2023/03/03 04:20:18;;;;;;;36.30;18.75;;;0.10;99.90;;;;;;5066050;28;20271;-82
2023/03/03 04:22:45;;;;;;;34.50;17.60;;;0.00;99.90;;;;;;5072340;28;20194;-82
2023/03/03 04:25:14;;;;;;;30.75;16.75;;;0.10;99.90;;;;;;5076710;28;20220;-82
2023/03/03 04:27:43;;;;;;;27.00;14.55;;;-0.10;99.90;;;;;;5069864;28;20305;-82
2023/03/03 04:30:15;;;;;;;30.92;17.50;;;0.10;99.90;;;;;;5065353;28;20297;-82
2023/03/03 04:32:42;;;;;;;38.13;17.63;;;0.00;99.90;;;;;;5064470;28;20249;-83
2023/03/03 04:35:10;;;;;;;28.50;15.43;;;-0.10;99.90;;;;;;5063783;28;20713;-83
2023/03/03 04:37:37;;;;;;;29.67;15.40;;;0.00;99.90;;;;;;5060707;28;20641;-83
2023/03/03 04:40:05;;;;;;;31.10;15.32;;;0.00;99.90;;;;;;5058897;28;20215;-81
2023/03/03 04:42:32;;;;;;;38.72;17.33;;;-0.10;99.90;;;;;;5057872;28;20630;-83
2023/03/03 04:45:01;;;;;;;28.50;15.25;;;-0.10;99.90;;;;;;5058113;28;20312;-82
2023/03/03 04:47:28;;;;;;;33.35;16.20;;;-0.10;99.90;;;;;;5059192;28;20309;-82
2023/03/03 04:49:54;;;;;;;31.30;16.67;;;0.00;99.90;;;;;;5059597;28;20580;-82
2023/03/03 04:52:21;;;;;;;35.97;18.70;;;0.00;99.90;;;;;;5061986;28;20220;-82
2023/03/03 04:54:48;;;;;;;39.50;18.45;;;0.00;99.90;;;;;;5059095;28;20223;-82
2023/03/03 04:57:15;;;;;;;31.63;16.75;;;0.00;99.90;;;;;;5057968;28;20234;-82
2023/03/03 04:59:42;;;;;;;34.75;18.35;;;0.20;99.90;;;;;;5058383;28;20299;-84
2023/03/03 05:02:11;;;;;;;36.55;19.65;;;0.20;99.90;;;;;;5056667;28;20833;-82
2023/03/03 05:04:39;;;;;;;38.03;19.40;;;0.40;99.90;;;;;;5056630;28;20720;-81
2023/03/03 05:07:05;;;;;;;44.80;19.27;;;0.20;99.90;;;;;;5061649;28;20282;-79
2023/03/03 05:09:32;;;;;;;35.70;20.30;;;0.40;99.90;;;;;;5064376;28;20214;-82
2023/03/03 05:11:59;;;;;;;37.67;16.88;;;0.10;99.90;;;;;;5058220;28;20577;-83
2023/03/03 05:14:27;;;;;;;43.90;21.27;;;-0.10;99.90;;;;;;5056896;28;20234;-80
2023/03/03 05:16:54;;;;;;;39.47;19.33;;;-0.10;99.90;;;;;;5056513;28;20282;-82
2023/03/03 05:19:23;;;;;;;32.58;17.85;;;0.10;99.90;;;;;;5057341;28;20617;-82
2023/03/03 05:21:50;;;;;;;39.00;17.35;;;0.10;99.90;;;;;;5056984;28;20674;-81
2023/03/03 05:24:17;;;;;;;33.33;17.42;;;0.00;99.90;;;;;;5063851;28;20228;-79
2023/03/03 05:26:43;;;;;;;35.03;16.50;;;-0.10;99.90;;;;;;5060711;28;20207;-81
2023/03/03 05:29:10;;;;;;;38.15;18.13;;;-0.20;99.90;;;;;;5061048;28;20266;-80
2023/03/03 05:31:37;;;;;;;38.28;17.05;;;-0.30;99.90;;;;;;5064972;28;20282;-82
2023/03/03 05:34:04;;;;;;;34.20;16.17;;;-0.50;99.90;;;;;;5066447;28;20322;-80
2023/03/03 05:36:32;;;;;;;31.88;15.32;;;-0.60;1.00;;;;;;5068274;28;20207;-81
2023/03/03 05:38:59;;;;;;;35.25;15.93;;;-0.40;99.90;;;;;;5065673;28;20206;-83
2023/03/03 05:41:26;;;;;;;33.13;17.67;;;-0.50;99.90;;;;;;5063758;28;20207;-82
2023/03/03 05:43:53;;;;;;;36.90;16.52;;;-0.50;99.90;;;;;;5059008;28;20221;-83
2023/03/03 05:46:22;;;;;;;29.58;15.55;;;-0.50;99.90;;;;;;5057251;28;20290;-82
2023/03/03 05:48:49;;;;;;;36.42;17.02;;;-0.40;99.90;;;;;;5056399;28;20310;-82
2023/03/03 05:51:16;;;;;;;42.25;17.45;;;-0.30;1.00;;;;;;5057610;28;20204;-83
2023/03/03 05:53:44;;;;;;;39.58;18.65;;;-0.30;99.90;;;;;;5056605;28;20231;-83
2023/03/03 05:56:11;;;;;;;33.47;17.48;;;-0.20;99.90;;;;;;5056646;28;20685;-83
2023/03/03 05:58:38;;;;;;;32.53;17.27;;;-0.40;99.90;;;;;;5057056;28;20286;-82
2023/03/03 06:01:05;;;;;;;37.70;19.48;;;-0.40;1.00;;;;;;5057469;28;20298;-83
2023/03/03 06:03:32;;;;;;;32.30;15.50;;;-0.30;99.90;;;;;;5056937;28;20259;-83
2023/03/03 06:05:59;;;;;;;37.63;17.00;;;-0.20;99.90;;;;;;5057031;28;20721;-84
2023/03/03 06:08:26;;;;;;;41.00;18.13;;;-0.20;99.90;;;;;;5056354;28;20221;-83
2023/03/03 06:10:54;;;;;;;34.83;17.27;;;-0.10;99.90;;;;;;5057884;28;20261;-84
2023/03/03 06:13:21;;;;;;;34.40;15.30;;;0.10;1.00;;;;;;5057748;28;20528;-82
2023/03/03 06:15:48;;;;;;;34.85;18.20;;;-0.10;99.90;;;;;;5057388;28;20215;-83
2023/03/03 06:18:15;;;;;;;36.17;17.10;;;-0.30;1.00;;;;;;5057636;28;20230;-82
2023/03/03 06:20:41;;;;;;;34.75;17.73;;;-0.20;99.90;;;;;;5060672;28;20210;-82
2023/03/03 06:23:08;;;;;;;32.35;16.60;;;-0.10;99.90;;;;;;5061338;28;20267;-83
2023/03/03 06:25:35;;;;;;;38.08;18.60;;;-0.20;99.90;;;;;;5061100;28;20306;-83
2023/03/03 06:28:03;;;;;;;29.88;15.75;;;-0.30;99.90;;;;;;5067061;28;20230;-81
2023/03/03 06:30:30;;;;;;;40.83;18.38;;;-0.30;99.90;;;;;;5067980;28;20199;-82
2023/03/03 06:32:57;;;;;;;45.75;19.70;;;-0.50;99.90;;;;;;5066333;28;20378;-83
2023/03/03 06:35:24;;;;;;;41.38;19.83;;;-0.30;99.90;;;;;;5070290;28;20261;-81
2023/03/03 06:37:51;;;;;;;38.70;18.33;;;-0.20;99.90;;;;;;5064741;28;20195;-82
2023/03/03 06:40:18;;;;;;;47.42;20.27;;;-0.30;99.90;;;;;;5063090;28;20297;-82
2023/03/03 06:42:45;;;;;;;46.75;20.58;;;-0.30;99.90;;;;;;5066117;28;20203;-81
2023/03/03 06:45:14;;;;;;;49.75;20.08;;;-0.20;99.90;;;;;;5061049;28;20603;-81
2023/03/03 06:47:41;;;;;;;36.92;18.10;;;-0.10;99.90;;;;;;5070839;28;20227;-80
2023/03/03 06:50:10;;;;;;;36.08;17.00;;;-0.20;99.90;;;;;;5076895;28;20270;-83
2023/03/03 06:52:37;;;;;;;39.15;19.13;;;-0.20;99.90;;;;;;5062358;28;20290;-83
2023/03/03 06:55:13;;;;;;;55.67;20.00;;;-0.10;99.90;;;;;;5061498;28;20226;-83
2023/03/03 06:57:41;;;;;;;48.13;19.73;;;-0.10;99.90;;;;;;5061297;28;20195;-82
2023/03/03 07:00:19;;;;;;;40.53;17.85;;;0.00;99.90;;;;;;5062053;28;20210;-83
2023/03/03 07:02:47;;;;;;;48.55;19.67;;;0.10;99.90;;;;;;5062459;28;20211;-81
2023/03/03 07:05:17;;;;;;;39.42;19.20;;;-0.10;99.90;;;;;;5061351;28;20301;-82
2023/03/03 07:07:44;;;;;;;43.70;19.90;;;-0.10;1.00;;;;;;5061467;28;20305;-83
2023/03/03 07:10:22;;;;;;;35.38;15.85;;;-0.20;99.90;;;;;;5062893;28;20293;-83
2023/03/03 07:12:48;;;;;;;38.55;17.20;;;-0.10;1.00;;;;;;5061232;28;20274;-85
2023/03/03 07:15:20;;;;;;;47.30;17.67;;;-0.20;99.90;;;;;;5064603;28;20417;-81
2023/03/03 07:17:49;;;;;;;37.28;18.23;;;-0.30;99.90;;;;;;5066644;28;20202;-82
2023/03/03 07:20:21;;;;;;;38.22;20.08;;;-0.20;99.90;;;;;;5066152;28;20693;-81
2023/03/03 07:22:48;;;;;;;41.13;18.13;;;-0.20;99.90;;;;;;5064708;28;20191;-83
2023/03/03 07:25:30;;;;;;;33.33;16.08;;;0.00;1.00;;;;;;5065389;28;20745;-83
2023/03/03 07:28:10;;;;;;;36.83;16.13;;;-0.10;99.90;;;;;;5068348;28;20296;-83
2023/03/03 07:30:39;;;;;;;41.00;21.08;;;-0.10;99.90;;;;;;5066859;28;20645;-82
2023/03/03 07:33:17;;;;;;;41.30;18.85;;;-0.10;99.90;;;;;;5073112;28;20214;-83
2023/03/03 07:35:46;;;;;;;43.47;24.35;;;-0.20;1.00;;;;;;5077289;28;20183;-83
2023/03/03 07:38:25;;;;;;;46.75;22.10;;;-0.10;99.90;;;;;;5071672;28;20230;-83
2023/03/03 07:40:53;;;;;;;41.85;19.80;;;-0.10;99.90;;;;;;5066858;28;20282;-83
2023/03/03 07:43:34;;;;;;;41.97;23.00;;;0.20;1.00;;;;;;5063761;28;20213;-83
2023/03/03 07:46:21;;;;;;;48.78;22.38;;;0.00;99.90;;;;;;5059791;28;20187;-83
2023/03/03 07:48:49;;;;;;;35.90;16.30;;;-0.10;99.90;;;;;;5058665;28;20704;-82
2023/03/03 07:51:21;;;;;;;32.35;16.10;;;0.00;1.00;;;;;;5058958;28;20643;-83
2023/03/03 07:53:49;;;;;;;39.83;16.52;;;0.10;1.00;;;;;;5058897;28;20591;-83
2023/03/03 07:56:23;;;;;;;34.70;15.82;;;0.30;1.00;;;;;;5060038;28;20741;-82
2023/03/03 07:58:50;;;;;;;44.15;20.67;;;0.40;1.00;;;;;;5063851;28;20196;-82
2023/03/03 08:01:39;;;;;;;48.53;21.30;;;0.40;99.90;;;;;;5065443;28;20217;-81
2023/03/03 08:04:23;;;;;;;46.85;22.00;;;0.00;99.90;;;;;;5062324;28;20226;-83
2023/03/03 08:06:52;;;;;;;41.90;19.08;;;0.00;99.90;;;;;;5058121;28;20229;-84
2023/03/03 08:09:36;;;;;;;43.28;20.83;;;0.10;99.90;;;;;;5058134;28;20713;-84
2023/03/03 08:12:27;;;;;;;48.80;21.17;;;0.20;99.90;;;;;;5058734;28;20191;-82
2023/03/03 08:14:56;;;;;;;46.45;20.23;;;0.30;99.90;;;;;;5075983;22;20311;-81
2023/03/03 08:17:28;;;;;;;43.33;22.25;;;0.00;99.90;;;;;;5067900;28;20212;-82
2023/03/03 08:19:55;;;;;;;42.47;19.33;;;0.40;99.90;;;;;;5074003;28;20211;-82
2023/03/03 08:22:30;;;;;;;38.78;18.33;;;0.10;99.90;;;;;;5074929;28;20199;-82
2023/03/03 08:24:57;;;;;;;39.15;18.02;;;0.20;1.00;;;;;;5067396;28;20222;-82
2023/03/03 08:27:23;;;;;;;29.10;13.38;;;0.40;99.90;;;;;;5076348;28;20206;-82
2023/03/03 08:29:50;;;;;;;30.05;14.82;;;0.50;99.90;;;;;;5078308;28;20211;-80
2023/03/03 08:32:17;;;;;;;33.35;15.57;;;0.30;99.90;;;;;;5078423;28;20247;-80
2023/03/03 08:34:45;;;;;;;34.80;15.38;;;0.30;99.90;;;;;;5073589;28;20726;-82
2023/03/03 08:37:12;;;;;;;36.80;15.00;;;0.30;99.90;;;;;;5070052;28;20203;-81
2023/03/03 08:39:39;;;;;;;34.63;16.70;;;0.40;99.90;;;;;;5072386;28;20265;-81
2023/03/03 08:42:06;;;;;;;29.25;15.50;;;0.40;99.90;;;;;;5065621;28;20340;-82
2023/03/03 08:44:33;;;;;;;35.53;14.95;;;0.40;99.90;;;;;;5065049;28;20234;-83
2023/03/03 08:47:00;;;;;;;29.33;16.08;;;0.20;99.90;;;;;;5064539;28;20261;-82
2023/03/03 08:49:27;;;;;;;40.97;18.73;;;0.30;99.90;;;;;;5064957;28;20218;-82
2023/03/03 08:51:55;;;;;;;38.15;17.35;;;0.60;99.90;;;;;;5064356;28;20278;-83
2023/03/03 08:54:22;;;;;;;39.78;19.63;;;0.50;99.90;;;;;;5063560;28;20259;-83
2023/03/03 08:56:49;;;;;;;37.00;18.65;;;0.60;99.90;;;;;;5063713;28;20207;-82
2023/03/03 08:59:16;;;;;;;33.40;17.42;;;0.60;99.90;;;;;;5064216;28;20620;-82
2023/03/03 09:01:44;;;;;;;39.42;18.15;;;0.70;99.90;;;;;;5064353;28;20325;-82
2023/03/03 09:04:11;;;;;;;28.88;15.60;;;0.70;99.90;;;;;;5066042;28;20231;-82
2023/03/03 09:06:38;;;;;;;32.70;15.80;;;0.90;99.90;;;;;;5065631;28;20242;-82
2023/03/03 09:09:06;;;;;;;24.25;13.10;;;1.10;99.90;;;;;;5073359;28;20267;-83
2023/03/03 09:11:33;;;;;;;20.65;11.15;;;1.00;99.90;;;;;;5074690;28;20312;-82
2023/03/03 09:14:07;;;;;;;22.02;12.07;;;0.60;99.90;;;;;;5076810;28;20203;-82
2023/03/03 09:16:39;;;;;;;23.33;13.95;;;0.90;99.90;;;;;;5070112;28;20316;-82
2023/03/03 09:19:20;;;;;;;17.92;11.43;;;0.90;99.90;;;;;;5065776;28;20198;-82
2023/03/03 09:21:47;;;;;;;20.60;10.52;;;0.90;99.90;;;;;;5069061;28;20188;-82
2023/03/03 09:24:24;;;;;;;21.20;12.27;;;0.90;99.90;;;;;;5078282;28;20229;-82
2023/03/03 09:26:52;;;;;;;24.08;13.60;;;1.00;99.90;;;;;;5078411;28;20198;-82
2023/03/03 09:29:25;;;;;;;24.17;13.20;;;0.60;99.90;;;;;;5075354;28;20223;-83
2023/03/03 09:31:54;;;;;;;18.20;10.82;;;0.90;99.90;;;;;;5068171;28;20192;-83
2023/03/03 09:34:37;;;;;;;24.38;12.45;;;1.10;99.90;;;;;;5061805;28;20231;-83
2023/03/03 09:37:18;;;;;;;27.63;14.05;;;1.40;99.90;;;;;;5068981;28;20191;-84
2023/03/03 09:39:50;;;;;;;22.58;12.40;;;1.50;29.40;;;;;;5073620;28;20202;-81
2023/03/03 09:42:37;;;;;;;29.73;14.90;;;1.20;18.30;;;;;;5073873;28;20226;-81
2023/03/03 09:45:27;;;;;;;23.48;13.52;;;1.20;99.90;;;;;;5074476;28;20250;-81
2023/03/03 09:48:26;;;;;;;34.33;12.00;;;1.10;32.60;;;;;;5074943;28;20253;-82
2023/03/03 09:51:02;;;;;;;17.77;10.50;;;1.30;53.10;;;;;;5069373;28;20207;-82
2023/03/03 09:53:39;;;;;;;18.25;11.77;;;1.40;39.50;;;;;;5066374;28;20278;-82
2023/03/03 09:56:16;;;;;;;19.40;10.25;;;1.50;1.00;;;;;;5069021;28;20314;-83
2023/03/03 09:58:56;;;;;;;18.10;11.68;;;1.60;1.00;;;;;;5069120;28;20193;-83
2023/03/03 10:01:40;;;;;;;19.95;11.40;;;1.80;1.00;;;;;;5069806;28;20192;-83
2023/03/03 10:04:31;;;;;;;26.60;12.02;;;0.80;1.00;;;;;;5069632;28;20299;-83
2023/03/03 10:07:11;;;;;;;17.60;11.00;;;1.50;1.00;;;;;;5075155;28;20236;-82
2023/03/03 10:09:50;;;;;;;24.08;11.38;;;1.50;1.00;;;;;;5070627;28;20242;-82
2023/03/03 10:12:25;;;;;;;19.45;12.10;;;1.50;1.00;;;;;;5065711;28;20282;-83
2023/03/03 10:15:16;;;;;;;28.48;11.50;;;1.60;1.00;;;;;;5067289;28;20227;-83
2023/03/03 10:17:51;;;;;;;20.40;12.25;;;1.60;1.00;;;;;;5079184;28;20206;-82
2023/03/03 10:20:37;;;;;;;28.52;9.80;;;1.70;1.00;;;;;;5076835;28;20644;-82
2023/03/03 10:23:19;;;;;;;19.27;10.27;;;2.10;1.00;;;;;;5068171;28;20253;-82
2023/03/03 10:26:03;;;;;;;32.75;12.63;;;2.30;1.00;;;;;;5069264;28;20222;-82
2023/03/03 10:28:59;;;;;;;21.48;11.60;;;2.20;1.00;;;;;;5074001;28;20267;-81
2023/03/03 10:31:36;;;;;;;20.13;11.65;;;2.30;1.00;;;;;;5074079;28;20203;-81
2023/03/03 10:34:15;;;;;;;17.77;10.10;;;2.20;1.00;;;;;;5079422;28;20175;-82
2023/03/03 10:36:52;;;;;;;18.35;10.75;;;2.40;1.00;;;;;;5080307;28;20183;-82
2023/03/03 10:39:45;;;;;;;18.00;10.30;;;5.50;1.00;;;;;;5079513;28;20215;-82
2023/03/03 10:42:32;;;;;;;16.55;8.43;;;2.20;1.00;;;;;;5076914;28;20195;-81
2023/03/03 10:45:24;;;;;;;39.00;10.63;;;2.30;1.00;;;;;;5079163;28;20283;-83
2023/03/03 10:48:19;;;;;;;13.27;9.63;;;2.40;1.00;;;;;;5080080;28;20190;-81
2023/03/03 10:50:54;;;;;;;16.35;9.73;;;2.10;1.00;;;;;;5076723;28;20247;-80
2023/03/03 10:53:31;;;;;;;15.98;10.52;;;2.20;1.00;;;;;;5079773;28;20278;-81
2023/03/03 10:56:13;;;;;;;18.40;8.38;;;1.90;1.00;;;;;;5079915;28;20231;-81
2023/03/03 10:58:57;;;;;;;13.32;7.80;;;2.10;1.00;;;;;;5075763;28;20192;-81
2023/03/03 11:01:35;;;;;;;16.05;8.18;;;2.10;1.00;;;;;;5069783;28;20246;-81
2023/03/03 11:04:35;;;;;;;17.40;8.55;;;2.10;1.00;;;;;;5069578;28;20250;-82
2023/03/03 11:07:08;;;;;;;13.20;9.00;;;2.40;1.00;;;;;;5057247;28;20203;-82
2023/03/03 11:09:56;;;;;;;16.08;9.52;;;2.70;1.00;;;;;;5072692;28;20208;-82
2023/03/03 11:12:34;;;;;;;23.02;9.73;;;2.50;1.00;;;;;;5073270;28;20647;-83
2023/03/03 11:15:21;;;;;;;18.00;9.48;;;2.70;99.90;;;;;;5068501;28;20235;-83
2023/03/03 11:18:02;;;;;;;12.75;8.25;;;2.70;99.90;;;;;;5068220;28;20247;-82
2023/03/03 11:20:38;;;;;;;19.30;11.45;;;2.60;99.90;;;;;;5069597;28;20192;-84
2023/03/03 11:23:24;;;;;;;20.15;11.43;;;2.50;1.00;;;;;;5069309;28;20201;-83
2023/03/03 11:25:57;;;;;;;17.83;10.95;;;2.70;1.00;;;;;;5068837;28;20231;-82
2023/03/03 11:28:39;;;;;;;19.55;12.52;;;2.80;99.90;;;;;;5069249;28;20340;-83
2023/03/03 11:31:19;;;;;;;20.52;12.95;;;2.70;1.00;;;;;;5068958;28;20260;-83
2023/03/03 11:33:57;;;;;;;24.40;12.88;;;2.50;1.00;;;;;;5070252;28;20230;-82
2023/03/03 11:36:30;;;;;;;19.05;12.40;;;2.60;1.00;;;;;;5070757;28;20215;-83
2023/03/03 11:38:59;;;;;;;28.95;14.30;;;3.10;1.00;;;;;;5073378;28;20183;-82
2023/03/03 11:41:35;;;;;;;26.50;14.25;;;3.00;1.00;;;;;;5071990;28;20252;-82
2023/03/03 11:44:21;;;;;;;28.15;13.38;;;3.00;1.00;;;;;;5075729;28;20217;-82
2023/03/03 11:46:53;;;;;;;23.88;13.82;;;3.10;99.90;;;;;;5075558;28;20191;-83
2023/03/03 11:49:29;;;;;;;20.08;13.68;;;3.00;99.90;;;;;;5067671;28;20270;-83
2023/03/03 11:52:06;;;;;;;21.17;12.60;;;2.80;1.00;;;;;;5067551;28;20194;-84
2023/03/03 11:54:44;;;;;;;23.92;12.32;;;3.00;1.00;;;;;;5067152;28;20278;-83
2023/03/03 11:57:19;;;;;;;25.23;12.48;;;4.60;99.90;;;;;;5068097;28;20252;-83
2023/03/03 11:59:57;;;;;;;25.25;13.85;;;3.20;99.90;;;;;;5067335;28;20262;-83
2023/03/03 12:02:46;;;;;;;28.50;14.15;;;3.20;99.90;;;;;;5068643;28;20223;-84
2023/03/03 12:05:27;;;;;;;27.10;11.75;;;3.10;99.90;;;;;;5068382;28;20290;-83
2023/03/03 12:08:01;;;;;;;28.83;13.68;;;3.50;1.00;;;;;;5069238;28;20226;-82
2023/03/03 12:10:36;;;;;;;20.98;12.60;;;3.30;99.90;;;;;;5069762;28;20267;-82
2023/03/03 12:13:06;;;;;;;21.00;12.20;;;3.90;1.00;;;;;;5069120;28;20237;-82
2023/03/03 12:15:41;;;;;;;24.80;13.50;;;3.80;99.90;;;;;;5068379;28;20294;-83
2023/03/03 12:18:35;;;;;;;21.00;12.45;;;3.60;1.00;;;;;;5068101;28;20294;-83
2023/03/03 12:21:18;;;;;;;16.42;11.32;;;3.50;99.90;;;;;;5067904;28;20231;-83
2023/03/03 12:24:13;;;;;;;22.80;13.13;;;3.30;1.00;;;;;;5067130;28;20690;-83
2023/03/03 12:26:49;;;;;;;25.23;13.18;;;3.10;99.90;;;;;;5062185;28;20267;-82
2023/03/03 12:29:27;;;;;;;23.70;12.90;;;3.60;1.00;;;;;;5066842;28;20203;-83
2023/03/03 12:32:00;;;;;;;17.23;10.60;;;3.50;99.90;;;;;;5065923;28;20197;-83
2023/03/03 12:34:34;;;;;;;23.65;12.43;;;3.80;1.00;;;;;;5066677;28;20307;-82
2023/03/03 12:37:19;;;;;;;21.05;12.30;;;3.80;99.90;;;;;;5068007;28;20299;-83
2023/03/03 12:39:56;;;;;;;20.20;11.35;;;3.50;99.90;;;;;;5074548;28;20216;-82
2023/03/03 12:42:38;;;;;;;21.45;12.00;;;3.70;99.90;;;;;;5073107;28;20192;-82
2023/03/03 12:45:21;;;;;;;23.13;12.45;;;3.60;99.90;;;;;;5075119;28;20262;-83
2023/03/03 12:47:51;;;;;;;17.23;10.70;;;3.30;99.90;;;;;;5074440;28;20192;-82
2023/03/03 12:50:29;;;;;;;22.08;12.52;;;3.20;99.90;;;;;;5074203;28;20278;-83
2023/03/03 12:53:04;;;;;;;19.10;10.85;;;3.30;99.90;;;;;;5070594;28;20302;-83
2023/03/03 12:55:43;;;;;;;18.58;10.57;;;3.70;99.90;;;;;;5069487;28;20292;-82
2023/03/03 12:58:19;;;;;;;24.27;11.60;;;3.40;99.90;;;;;;5067420;28;20254;-83
2023/03/03 13:00:54;;;;;;;20.17;11.82;;;3.50;99.90;;;;;;5067140;28;20625;-82
2023/03/03 13:03:36;;;;;;;18.65;11.50;;;3.60;1.00;;;;;;5067517;28;20553;-83